createdAt,value
2023-01-05T00:00:32.971Z,2.20
2023-01-05T00:03:03.142Z,2.42
2023-01-05T00:05:33.144Z,2.38
2023-01-05T00:08:03.623Z,2.63
2023-01-05T00:10:50.661Z,2.50
2023-01-05T00:13:37.586Z,2.35
2023-01-05T00:16:41.226Z,2.33
2023-01-05T00:19:30.900Z,2.50
2023-01-05T00:22:17.933Z,2.20
2023-01-05T00:24:47.925Z,2.33
2023-01-05T00:27:18.389Z,2.35
2023-01-05T00:29:49.010Z,2.38
2023-01-05T00:32:21.458Z,2.60
2023-01-05T00:34:54.649Z,2.45
2023-01-05T00:37:26.643Z,2.35
2023-01-05T00:39:57.254Z,2.30
2023-01-05T00:42:28.189Z,2.70
2023-01-05T00:44:58.588Z,2.47
2023-01-05T00:47:31.275Z,2.42
2023-01-05T00:50:01.150Z,2.67
2023-01-05T00:52:31.917Z,2.60
2023-01-05T00:55:02.511Z,2.47
2023-01-05T00:57:33.583Z,2.40
2023-01-05T01:00:04.440Z,2.70
2023-01-05T01:02:36.923Z,2.65
2023-01-05T01:05:09.349Z,2.42
2023-01-05T01:07:40.064Z,2.72
2023-01-05T01:10:13.629Z,2.88
2023-01-05T01:12:44.123Z,2.65
2023-01-05T01:15:14.498Z,2.45
2023-01-05T01:17:47.060Z,2.90
2023-01-05T01:20:17.501Z,2.45
2023-01-05T01:22:47.910Z,2.60
2023-01-05T01:25:18.101Z,2.55
2023-01-05T01:27:48.115Z,2.58
2023-01-05T01:30:18.664Z,2.65
2023-01-05T01:32:51.218Z,2.60
2023-01-05T01:35:20.964Z,2.63
2023-01-05T01:37:51.379Z,2.63
2023-01-05T01:40:21.618Z,2.63
2023-01-05T01:42:51.794Z,2.78
2023-01-05T01:45:24.746Z,2.65
2023-01-05T01:48:01.171Z,2.67
2023-01-05T01:50:36.734Z,2.75
2023-01-05T01:53:10.582Z,2.53
2023-01-05T01:55:42.603Z,2.75
2023-01-05T01:58:19.168Z,2.75
2023-01-05T02:00:50.012Z,2.65
2023-01-05T02:03:22.851Z,2.67
2023-01-05T02:05:53.228Z,2.67
2023-01-05T02:08:31.877Z,3.00
2023-01-05T02:11:30.525Z,2.60
2023-01-05T02:14:28.916Z,2.42
2023-01-05T02:17:18.266Z,2.50
2023-01-05T02:20:33.195Z,2.70
2023-01-05T02:23:56.088Z,2.33
2023-01-05T02:27:26.219Z,2.45
2023-01-05T02:31:02.349Z,2.50
2023-01-05T02:33:55.431Z,2.38
2023-01-05T02:36:32.377Z,2.35
2023-01-05T02:39:10.949Z,2.70
2023-01-05T02:41:50.923Z,2.60
2023-01-05T02:44:22.401Z,2.55
2023-01-05T02:47:04.736Z,2.70
2023-01-05T02:49:42.764Z,2.72
2023-01-05T02:52:15.378Z,2.42
2023-01-05T02:54:51.469Z,2.90
2023-01-05T02:57:47.511Z,2.97
2023-01-05T03:00:24.901Z,2.75
2023-01-05T03:03:03.355Z,2.85
2023-01-05T03:05:40.502Z,2.83
2023-01-05T03:08:26.295Z,2.92
2023-01-05T03:11:19.985Z,2.67
2023-01-05T03:13:58.248Z,2.67
2023-01-05T03:16:36.702Z,2.90
2023-01-05T03:19:30.519Z,2.67
2023-01-05T03:22:24.796Z,2.50
2023-01-05T03:25:11.755Z,2.42
2023-01-05T03:28:00.212Z,2.70
2023-01-05T03:30:59.572Z,2.67
2023-01-05T03:34:01.767Z,2.60
2023-01-05T03:36:39.733Z,2.60
2023-01-05T03:39:16.510Z,2.63
2023-01-05T03:41:47.368Z,2.60
2023-01-05T03:44:17.310Z,2.75
2023-01-05T03:46:48.135Z,2.88
2023-01-05T03:49:23.682Z,2.50
2023-01-05T03:51:54.117Z,2.80
2023-01-05T03:54:26.539Z,2.70
2023-01-05T03:56:57.027Z,2.63
2023-01-05T03:59:27.451Z,2.35
2023-01-05T04:01:58.223Z,2.30
2023-01-05T04:04:28.793Z,2.40
2023-01-05T04:06:59.323Z,2.38
2023-01-05T04:09:31.285Z,2.67
2023-01-05T04:12:01.673Z,2.53
2023-01-05T04:14:34.061Z,2.55
2023-01-05T04:17:07.019Z,2.55
2023-01-05T04:19:37.535Z,2.63
2023-01-05T04:22:07.636Z,2.50
2023-01-05T04:24:40.343Z,2.63
2023-01-05T04:27:10.671Z,2.60
2023-01-05T04:29:40.786Z,2.72
2023-01-05T04:32:11.006Z,2.63
2023-01-05T04:34:41.536Z,2.70
2023-01-05T04:37:12.176Z,2.40
2023-01-05T04:39:44.529Z,2.60
2023-01-05T04:42:14.459Z,2.88
2023-01-05T04:44:44.869Z,2.33
2023-01-05T04:47:15.277Z,2.55
2023-01-05T04:49:45.049Z,2.40
2023-01-05T04:52:15.423Z,2.30
2023-01-05T04:54:47.565Z,2.05
2023-01-05T04:57:18.991Z,2.38
2023-01-05T04:59:49.646Z,2.55
2023-01-05T05:02:20.550Z,2.30
2023-01-05T05:04:51.033Z,2.30
2023-01-05T05:07:21.487Z,2.25
2023-01-05T05:09:53.952Z,2.47
2023-01-05T05:12:24.091Z,2.47
2023-01-05T05:14:54.598Z,2.58
2023-01-05T05:17:25.121Z,2.47
2023-01-05T05:19:55.530Z,2.35
2023-01-05T05:22:26.682Z,2.30
2023-01-05T05:24:59.360Z,2.47
2023-01-05T05:27:30.350Z,2.40
2023-01-05T05:30:00.668Z,2.58
2023-01-05T05:32:30.892Z,2.45
2023-01-05T05:35:01.285Z,2.50
2023-01-05T05:37:31.000Z,2.67
2023-01-05T05:40:03.418Z,2.50
2023-01-05T05:42:33.992Z,2.65
2023-01-05T05:45:04.540Z,2.42
2023-01-05T05:47:35.280Z,2.53
2023-01-05T05:50:05.957Z,2.50
2023-01-05T05:52:35.691Z,2.60
2023-01-05T05:55:10.314Z,2.70
2023-01-05T05:57:40.623Z,2.25
2023-01-05T06:00:12.363Z,2.35
2023-01-05T06:02:43.494Z,2.15
2023-01-05T06:05:13.825Z,2.70
2023-01-05T06:07:44.261Z,2.53
2023-01-05T06:10:17.482Z,2.83
2023-01-05T06:12:47.759Z,2.45
2023-01-05T06:15:18.474Z,2.50
2023-01-05T06:17:49.733Z,2.53
2023-01-05T06:20:20.397Z,2.38
2023-01-05T06:22:50.206Z,2.17
2023-01-05T06:25:22.670Z,2.28
2023-01-05T06:27:53.358Z,2.40
2023-01-05T06:30:24.205Z,2.22
2023-01-05T06:32:54.817Z,2.28
2023-01-05T06:35:25.906Z,2.47
2023-01-05T06:37:55.967Z,2.50
2023-01-05T06:40:28.160Z,2.10
2023-01-05T06:42:58.803Z,2.20
2023-01-05T06:45:29.442Z,2.30
2023-01-05T06:47:59.810Z,2.08
2023-01-05T06:50:30.850Z,2.40
2023-01-05T06:53:01.527Z,2.45
2023-01-05T06:55:34.249Z,1.90
2023-01-05T06:58:04.005Z,2.13
2023-01-05T07:00:34.696Z,2.20
2023-01-05T07:03:05.039Z,2.10
2023-01-05T07:05:35.997Z,2.00
2023-01-05T07:08:05.975Z,2.38
2023-01-05T07:10:38.009Z,2.13
2023-01-05T07:13:07.633Z,2.00
2023-01-05T07:15:37.648Z,2.10
2023-01-05T07:18:08.041Z,2.00
2023-01-05T07:20:38.869Z,1.90
2023-01-05T07:23:09.502Z,2.03
2023-01-05T07:25:41.849Z,2.08
2023-01-05T07:28:12.400Z,2.00
2023-01-05T07:30:42.917Z,1.90
2023-01-05T07:33:13.367Z,1.88
2023-01-05T07:35:43.835Z,2.10
2023-01-05T07:38:13.591Z,2.10
2023-01-05T07:40:46.351Z,2.03
2023-01-05T07:43:16.963Z,1.90
2023-01-05T07:45:47.109Z,2.13
2023-01-05T07:48:23.224Z,2.03
2023-01-05T07:50:54.125Z,2.10
2023-01-05T07:53:26.151Z,1.88
2023-01-05T07:56:05.719Z,2.00
2023-01-05T07:58:36.288Z,1.90
2023-01-05T08:01:08.671Z,2.00
2023-01-05T08:03:39.527Z,1.90
2023-01-05T08:06:13.003Z,1.90
2023-01-05T08:08:43.812Z,1.90
2023-01-05T08:11:20.258Z,1.90
2023-01-05T08:14:03.214Z,1.80
2023-01-05T08:16:35.957Z,1.92
2023-01-05T08:19:10.887Z,1.90
2023-01-05T08:21:41.923Z,1.83
2023-01-05T08:24:12.237Z,1.92
2023-01-05T08:26:43.738Z,1.70
2023-01-05T08:29:14.198Z,1.83
2023-01-05T08:31:44.864Z,1.90
2023-01-05T08:34:15.179Z,1.73
2023-01-05T08:36:45.745Z,1.80
2023-01-05T08:39:16.131Z,1.90
2023-01-05T08:41:50.395Z,1.85
2023-01-05T08:44:20.964Z,1.90
2023-01-05T08:46:51.654Z,1.90
2023-01-05T08:49:22.653Z,1.55
2023-01-05T08:51:53.162Z,1.60
2023-01-05T08:54:23.735Z,1.80
2023-01-05T08:56:57.427Z,1.77
2023-01-05T08:59:29.046Z,1.80
2023-01-05T09:02:00.077Z,1.70
2023-01-05T09:04:30.704Z,1.67
2023-01-05T09:07:01.332Z,1.55
2023-01-05T09:09:31.810Z,1.55
2023-01-05T09:12:03.118Z,1.88
2023-01-05T09:14:35.300Z,2.08
2023-01-05T09:17:08.048Z,1.80
2023-01-05T09:19:40.257Z,1.80
2023-01-05T09:22:10.736Z,1.77
2023-01-05T09:24:41.218Z,1.70
2023-01-05T09:27:13.161Z,1.60
2023-01-05T09:29:43.310Z,1.58
2023-01-05T09:32:13.815Z,1.55
2023-01-05T09:34:45.429Z,1.52
2023-01-05T09:37:15.649Z,1.60
2023-01-05T09:39:46.069Z,1.48
2023-01-05T09:42:23.892Z,1.58
2023-01-05T09:45:02.412Z,1.40
2023-01-05T09:47:39.901Z,1.40
2023-01-05T09:50:20.637Z,1.50
2023-01-05T09:52:55.146Z,1.40
2023-01-05T09:55:31.269Z,1.50
2023-01-05T09:58:13.046Z,1.55
2023-01-05T10:00:54.383Z,1.55
2023-01-05T10:04:02.433Z,1.60
2023-01-05T10:06:20.226Z,1.60
2023-01-05T10:08:54.351Z,1.40
2023-01-05T10:11:53.206Z,1.40
2023-01-05T10:14:35.689Z,1.33
2023-01-05T10:17:39.848Z,1.50
2023-01-05T10:20:00.311Z,1.40
2023-01-05T10:22:46.108Z,1.42
2023-01-05T10:25:26.824Z,1.50
2023-01-05T10:28:11.011Z,1.40
2023-01-05T10:31:00.123Z,1.30
2023-01-05T10:33:56.750Z,1.27
2023-01-05T10:37:09.674Z,1.50
2023-01-05T10:40:05.656Z,1.40
2023-01-05T10:42:50.345Z,1.00
2023-01-05T10:45:22.410Z,1.17
2023-01-05T10:47:54.560Z,1.00
2023-01-05T10:50:38.468Z,1.10
2023-01-05T10:53:15.659Z,0.68
2023-01-05T10:55:57.239Z,1.00
2023-01-05T10:58:30.799Z,1.08
2023-01-05T11:01:07.250Z,0.90
2023-01-05T11:04:25.222Z,0.90
2023-01-05T11:06:38.860Z,0.75
2023-01-05T11:09:22.647Z,0.68
2023-01-05T11:11:59.190Z,0.88
2023-01-05T11:14:35.319Z,0.60
2023-01-05T11:17:09.419Z,0.50
2023-01-05T11:19:54.153Z,0.60
2023-01-05T11:22:36.344Z,0.60
2023-01-05T11:25:29.926Z,0.60
2023-01-05T11:28:16.788Z,0.80
2023-01-05T11:31:02.465Z,0.63
2023-01-05T11:33:40.344Z,0.50
2023-01-05T11:36:17.413Z,0.70
2023-01-05T11:38:55.185Z,0.88
2023-01-05T11:41:27.041Z,0.70
2023-01-05T11:44:01.367Z,0.68
2023-01-05T11:46:45.368Z,0.63
2023-01-05T11:49:21.386Z,0.75
2023-01-05T11:51:54.066Z,0.50
2023-01-05T11:54:40.694Z,0.40
2023-01-05T11:57:19.295Z,0.73
2023-01-05T11:59:51.562Z,0.68
2023-01-05T12:03:15.060Z,0.65
2023-01-05T12:05:53.188Z,0.88
2023-01-05T12:08:33.633Z,0.68
2023-01-05T12:11:17.397Z,0.60
2023-01-05T12:14:09.642Z,0.40
2023-01-05T12:16:49.131Z,0.52
2023-01-05T12:20:07.463Z,0.80
2023-01-05T12:23:40.438Z,0.57
2023-01-05T12:26:27.876Z,0.50
2023-01-05T12:36:19.315Z,0.55
2023-01-05T12:39:16.420Z,0.70
2023-01-05T12:42:23.072Z,0.60
2023-01-05T12:45:44.207Z,0.45
2023-01-05T12:48:23.507Z,0.70
2023-01-05T12:51:07.883Z,0.50
2023-01-05T12:54:02.812Z,0.52
2023-01-05T12:56:41.752Z,0.70
2023-01-05T12:59:23.275Z,0.52
2023-01-05T13:02:15.364Z,0.77
2023-01-05T13:04:57.293Z,0.70
2023-01-05T13:07:50.884Z,0.52
2023-01-05T13:10:30.695Z,0.65
2023-01-05T13:13:07.784Z,0.70
2023-01-05T13:15:45.627Z,0.47
2023-01-05T13:18:21.404Z,0.57
2023-01-05T13:20:56.928Z,0.47
2023-01-05T13:23:33.124Z,0.50
2023-01-05T13:26:13.251Z,0.80
2023-01-05T13:28:44.207Z,0.80
2023-01-05T13:32:01.844Z,0.60
2023-01-05T13:35:01.017Z,0.40
2023-01-05T13:38:28.535Z,0.65
2023-01-05T13:41:40.374Z,0.50
2023-01-05T13:45:15.687Z,0.60
2023-01-05T13:48:38.345Z,0.50
2023-01-05T13:51:54.641Z,0.50
2023-01-05T13:54:54.943Z,0.80
2023-01-05T13:57:40.948Z,0.80
2023-01-05T14:00:25.506Z,0.55
2023-01-05T14:03:08.207Z,0.30
2023-01-05T14:05:52.089Z,0.45
2023-01-05T14:08:29.395Z,0.30
2023-01-05T14:11:16.420Z,0.52
2023-01-05T14:13:53.341Z,0.60
2023-01-05T14:17:11.906Z,0.60
2023-01-05T14:19:55.319Z,0.70
2023-01-05T14:22:38.511Z,0.52
2023-01-05T14:25:55.160Z,0.70
2023-01-05T14:28:50.132Z,0.65
2023-01-05T14:31:50.150Z,0.40
2023-01-05T14:34:23.659Z,0.50
2023-01-05T14:37:09.263Z,0.50
2023-01-05T14:39:48.007Z,0.80
2023-01-05T14:42:37.665Z,0.70
2023-01-05T14:45:25.834Z,0.63
2023-01-05T14:47:59.975Z,0.60
2023-01-05T14:50:38.563Z,0.70
2023-01-05T14:53:16.686Z,0.60
2023-01-05T14:56:23.999Z,0.65
2023-01-05T14:59:20.208Z,0.70
2023-01-05T15:02:19.488Z,0.60
2023-01-05T15:07:45.673Z,0.60
2023-01-05T15:10:52.920Z,0.65
2023-01-05T15:14:27.216Z,0.40
2023-01-05T15:17:50.087Z,0.70
2023-01-05T15:21:01.373Z,0.60
2023-01-05T15:24:05.522Z,0.88
2023-01-05T15:27:01.445Z,1.30
2023-01-05T15:30:06.543Z,1.17
2023-01-05T15:32:46.054Z,1.10
2023-01-05T15:35:21.315Z,1.30
2023-01-05T15:37:54.049Z,1.20
2023-01-05T15:40:36.240Z,1.08
2023-01-05T15:43:08.643Z,1.10
2023-01-05T15:45:43.687Z,1.10
2023-01-05T15:48:21.394Z,0.90
2023-01-05T15:50:55.637Z,0.98
2023-01-05T15:53:36.034Z,1.30
2023-01-05T15:56:08.745Z,1.00
2023-01-05T15:58:48.103Z,1.13
2023-01-05T16:01:19.475Z,1.60
2023-01-05T16:03:52.554Z,1.45
2023-01-05T16:06:27.471Z,1.48
2023-01-05T16:09:11.227Z,1.50
2023-01-05T16:11:47.497Z,1.08
2023-01-05T16:14:29.323Z,0.95
2023-01-05T16:17:07.238Z,0.98
2023-01-05T16:19:44.165Z,1.08
2023-01-05T16:22:21.759Z,1.10
2023-01-05T16:25:05.856Z,1.17
2023-01-05T16:27:41.915Z,1.20
2023-01-05T16:30:33.222Z,1.20
2023-01-05T16:33:12.275Z,1.17
2023-01-05T16:35:47.468Z,1.10
2023-01-05T16:38:26.219Z,1.08
2023-01-05T16:41:25.973Z,1.13
2023-01-05T16:44:00.498Z,1.00
2023-01-05T16:46:43.336Z,0.80
2023-01-05T16:49:43.653Z,1.00
2023-01-05T16:52:28.870Z,0.82
2023-01-05T16:55:29.375Z,1.00
2023-01-05T16:58:03.049Z,1.10
2023-01-05T17:00:40.968Z,1.40
2023-01-05T17:03:33.095Z,1.20
2023-01-05T17:06:04.539Z,1.05
2023-01-05T17:08:38.284Z,1.05
2023-01-05T17:11:14.136Z,1.20
2023-01-05T17:13:48.947Z,1.02
2023-01-05T17:16:19.817Z,1.40
2023-01-05T17:18:52.656Z,1.15
2023-01-05T17:21:27.911Z,1.35
2023-01-05T17:24:02.005Z,2.90
2023-01-05T17:26:37.690Z,2.78
2023-01-05T17:29:12.968Z,1.98
2023-01-05T17:31:43.419Z,1.83
2023-01-05T17:34:14.746Z,1.70
2023-01-05T17:36:46.449Z,1.60
2023-01-05T17:39:18.194Z,1.60
2023-01-05T17:41:48.281Z,1.60
2023-01-05T17:44:26.485Z,1.40
2023-01-05T17:46:57.163Z,1.65
2023-01-05T17:54:34.038Z,1.50
2023-01-05T17:57:04.767Z,1.27
2023-01-05T17:59:38.200Z,1.35
2023-01-05T18:02:09.048Z,1.42
2023-01-05T18:04:39.014Z,1.33
2023-01-05T18:07:13.713Z,1.40
2023-01-05T18:09:44.490Z,1.38
2023-01-05T18:12:15.021Z,1.50
2023-01-05T18:14:46.808Z,1.50
2023-01-05T18:17:17.958Z,1.67
2023-01-05T18:19:48.862Z,1.90
2023-01-05T18:22:19.341Z,1.77
2023-01-05T18:24:49.908Z,1.80
2023-01-05T18:27:20.347Z,1.70
2023-01-05T18:30:02.108Z,4.63
2023-01-05T18:32:32.680Z,3.15
2023-01-05T18:35:07.253Z,2.60
2023-01-05T18:37:41.519Z,2.10
2023-01-05T18:40:14.565Z,1.63
2023-01-05T18:42:45.454Z,1.33
2023-01-05T18:45:19.462Z,1.50
2023-01-05T18:48:00.367Z,1.50
2023-01-05T18:50:30.945Z,1.50
2023-01-05T18:53:02.082Z,1.90
2023-01-05T18:55:32.570Z,1.58
2023-01-05T18:58:02.719Z,1.77
2023-01-05T19:00:35.765Z,1.55
2023-01-05T19:03:06.634Z,1.17
2023-01-05T19:05:42.379Z,1.70
2023-01-05T19:08:14.134Z,1.70
2023-01-05T19:10:45.156Z,1.52
2023-01-05T19:13:15.712Z,1.80
2023-01-05T19:15:48.696Z,2.00
2023-01-05T19:18:19.392Z,1.50
2023-01-05T19:20:58.243Z,1.60
2023-01-05T19:23:29.382Z,1.83
2023-01-05T19:26:05.059Z,2.00
2023-01-05T19:28:38.397Z,1.83
2023-01-05T19:31:15.408Z,2.00
2023-01-05T19:33:47.622Z,2.10
2023-01-05T19:36:21.893Z,1.80
2023-01-05T19:38:55.153Z,1.80
2023-01-05T19:41:26.980Z,2.00
2023-01-05T19:43:59.427Z,1.90
2023-01-05T19:46:32.428Z,1.77
2023-01-05T19:49:03.776Z,1.98
2023-01-05T19:51:37.324Z,1.90
2023-01-05T19:54:08.091Z,2.05
2023-01-05T19:56:39.979Z,1.90
2023-01-05T19:59:22.258Z,2.15
2023-01-05T20:01:56.770Z,2.17
2023-01-05T20:04:27.192Z,2.10
2023-01-05T20:06:58.224Z,1.92
2023-01-05T20:09:29.123Z,1.90
2023-01-05T20:12:13.246Z,2.05
2023-01-05T20:14:45.314Z,2.00
2023-01-05T20:17:18.888Z,1.70
2023-01-05T20:19:49.465Z,2.08
2023-01-05T20:22:20.499Z,1.85
2023-01-05T20:24:51.782Z,2.00
2023-01-05T20:27:22.360Z,2.17
2023-01-05T20:29:57.884Z,2.45
2023-01-05T20:35:45.156Z,2.30
2023-01-05T20:38:20.043Z,2.10
2023-01-05T20:40:56.423Z,2.50
2023-01-05T20:43:40.611Z,2.30
2023-01-05T20:46:19.014Z,2.00
2023-01-05T20:51:57.084Z,1.90
2023-01-05T20:54:55.714Z,1.90
2023-01-05T20:57:30.435Z,2.00
2023-01-05T21:00:07.076Z,2.08
2023-01-05T21:02:49.574Z,2.30
2023-01-05T21:05:29.173Z,2.40
2023-01-05T21:07:59.939Z,2.03
2023-01-05T21:10:29.883Z,1.98
2023-01-05T21:13:32.160Z,2.00
2023-01-05T21:16:00.715Z,1.98
2023-01-05T21:18:31.505Z,2.03
2023-01-05T21:21:07.864Z,2.00
2023-01-05T21:23:39.139Z,2.00
2023-01-05T21:26:13.645Z,1.75
2023-01-05T21:28:47.300Z,2.20
2023-01-05T21:31:20.433Z,2.10
2023-01-05T21:33:51.320Z,2.08
2023-01-05T21:36:27.448Z,2.28
2023-01-05T21:39:04.105Z,2.00
2023-01-05T21:41:52.266Z,1.73
2023-01-05T21:44:24.084Z,1.88
2023-01-05T21:46:54.900Z,2.20
2023-01-05T21:49:25.283Z,2.10
2023-01-05T21:52:13.956Z,2.20
2023-01-05T21:55:01.276Z,2.20
2023-01-05T21:57:31.646Z,2.10
2023-01-05T22:00:01.507Z,2.25
2023-01-05T22:02:32.151Z,2.17
2023-01-05T22:05:02.453Z,2.05
2023-01-05T22:07:34.559Z,2.13
2023-01-05T22:10:05.042Z,2.17
2023-01-05T22:12:35.189Z,1.92
2023-01-05T22:15:05.885Z,1.95
2023-01-05T22:17:36.573Z,2.10
2023-01-05T22:20:07.700Z,2.08
2023-01-05T22:22:39.966Z,1.98
2023-01-05T22:25:10.939Z,2.40
2023-01-05T22:27:41.169Z,2.10
2023-01-05T22:30:13.079Z,2.15
2023-01-05T22:32:43.915Z,2.35
2023-01-05T22:35:14.359Z,2.20
2023-01-05T22:37:46.554Z,1.90
2023-01-05T22:40:17.263Z,1.92
2023-01-05T22:42:47.730Z,2.10
2023-01-05T22:45:18.713Z,1.90
2023-01-05T22:47:49.230Z,2.00
2023-01-05T22:50:19.664Z,1.80
2023-01-05T22:52:52.148Z,1.80
2023-01-05T22:55:21.863Z,2.00
2023-01-05T22:57:51.873Z,2.10
2023-01-05T23:00:22.287Z,1.70
2023-01-05T23:02:52.783Z,1.80
2023-01-05T23:05:23.211Z,1.80
2023-01-05T23:07:55.142Z,1.70
2023-01-05T23:10:28.104Z,1.80
2023-01-05T23:12:57.854Z,1.80
2023-01-05T23:15:28.616Z,1.63
2023-01-05T23:17:59.079Z,1.58
2023-01-05T23:20:29.462Z,1.98
2023-01-05T23:23:01.568Z,1.83
2023-01-05T23:25:31.429Z,1.63
2023-01-05T23:28:01.190Z,1.60
2023-01-05T23:30:31.998Z,1.55
2023-01-05T23:33:02.051Z,2.00
2023-01-05T23:35:32.221Z,1.60
2023-01-05T23:38:04.762Z,1.75
2023-01-05T23:40:35.007Z,1.90
2023-01-05T23:43:05.423Z,1.60
2023-01-05T23:45:35.959Z,1.67
2023-01-05T23:48:06.752Z,1.70
2023-01-05T23:50:37.618Z,1.73
2023-01-05T23:53:09.664Z,1.67
2023-01-05T23:55:40.969Z,1.85
2023-01-05T23:58:13.038Z,2.00
